createdAt,value
2022-12-27T00:00:17.820Z,12.10
2022-12-27T00:03:20.528Z,12.68
2022-12-27T00:06:25.574Z,12.40
2022-12-27T00:09:28.244Z,12.10
2022-12-27T00:12:30.346Z,11.95
2022-12-27T00:15:36.810Z,11.10
2022-12-27T00:18:40.719Z,11.77
2022-12-27T00:21:42.900Z,11.20
2022-12-27T00:24:45.284Z,11.32
2022-12-27T00:27:49.821Z,10.88
2022-12-27T00:30:57.064Z,10.57
2022-12-27T00:34:04.425Z,10.77
2022-12-27T00:37:06.545Z,11.77
2022-12-27T00:40:15.418Z,12.25
2022-12-27T00:43:17.605Z,10.57
2022-12-27T00:46:20.754Z,12.40
2022-12-27T00:49:23.184Z,11.63
2022-12-27T00:52:25.405Z,11.65
2022-12-27T00:55:27.510Z,13.07
2022-12-27T00:58:29.707Z,11.95
2022-12-27T01:01:35.220Z,12.25
2022-12-27T01:04:37.243Z,12.88
2022-12-27T01:07:39.857Z,13.32
2022-12-27T01:10:42.177Z,11.85
2022-12-27T01:13:47.351Z,12.65
2022-12-27T01:16:49.902Z,13.32
2022-12-27T01:19:52.831Z,11.88
2022-12-27T01:22:55.100Z,12.02
2022-12-27T01:26:06.453Z,12.73
2022-12-27T01:29:12.588Z,12.13
2022-12-27T01:32:15.830Z,11.68
2022-12-27T01:35:18.236Z,14.18
2022-12-27T01:38:20.640Z,13.55
2022-12-27T01:41:52.593Z,13.65
2022-12-27T01:44:57.872Z,12.60
2022-12-27T01:48:10.425Z,12.43
2022-12-27T01:51:12.860Z,13.23
2022-12-27T01:54:15.209Z,12.02
2022-12-27T01:57:17.565Z,12.93
2022-12-27T02:00:20.344Z,12.98
2022-12-27T02:03:30.539Z,12.73
2022-12-27T02:06:34.213Z,13.13
2022-12-27T02:09:44.807Z,13.50
2022-12-27T02:12:47.285Z,12.60
2022-12-27T02:15:49.893Z,13.27
2022-12-27T02:18:51.905Z,13.63
2022-12-27T02:22:21.135Z,12.30
2022-12-27T02:25:45.793Z,12.88
2022-12-27T02:29:06.107Z,11.82
2022-12-27T02:32:35.370Z,13.30
2022-12-27T02:35:43.469Z,12.98
2022-12-27T02:38:51.005Z,12.88
2022-12-27T02:42:13.642Z,13.98
2022-12-27T02:45:39.812Z,13.77
2022-12-27T02:49:12.701Z,12.32
2022-12-27T02:52:55.172Z,14.10
2022-12-27T02:56:38.953Z,15.68
2022-12-27T03:00:23.878Z,17.58
2022-12-27T03:04:07.165Z,15.75
2022-12-27T03:07:14.951Z,13.88
2022-12-27T03:11:11.584Z,13.40
2022-12-27T03:14:54.104Z,14.70
2022-12-27T03:18:12.053Z,13.85
2022-12-27T03:21:42.450Z,11.85
2022-12-27T03:25:03.253Z,13.32
2022-12-27T03:28:28.937Z,13.00
2022-12-27T03:31:53.624Z,14.48
2022-12-27T03:35:10.763Z,17.85
2022-12-27T03:38:15.207Z,16.15
2022-12-27T03:42:17.327Z,13.68
2022-12-27T03:45:21.978Z,13.57
2022-12-27T03:48:26.905Z,13.68
2022-12-27T03:51:37.531Z,12.77
2022-12-27T03:54:42.248Z,13.90
2022-12-27T03:57:44.711Z,12.32
2022-12-27T04:00:47.585Z,12.90
2022-12-27T04:03:49.621Z,11.50
2022-12-27T04:06:51.844Z,11.25
2022-12-27T04:10:12.880Z,11.32
2022-12-27T04:13:33.823Z,11.85
2022-12-27T04:16:54.780Z,11.98
2022-12-27T04:20:15.703Z,12.93
2022-12-27T04:23:40.734Z,13.40
2022-12-27T04:27:02.224Z,16.00
2022-12-27T04:30:23.223Z,14.38
2022-12-27T04:33:43.756Z,12.35
2022-12-27T04:36:46.323Z,11.95
2022-12-27T04:40:06.880Z,12.00
2022-12-27T04:43:28.072Z,12.70
2022-12-27T04:46:49.449Z,11.55
2022-12-27T04:50:10.419Z,11.10
2022-12-27T04:53:34.243Z,12.15
2022-12-27T04:56:36.241Z,12.13
2022-12-27T04:59:57.269Z,12.38
2022-12-27T05:03:01.066Z,12.27
2022-12-27T05:06:04.129Z,12.25
2022-12-27T05:09:35.682Z,11.32
2022-12-27T05:12:56.233Z,12.27
2022-12-27T05:15:58.371Z,12.05
2022-12-27T05:19:00.517Z,11.98
2022-12-27T05:22:21.287Z,12.57
2022-12-27T05:25:35.648Z,13.38
2022-12-27T05:28:37.735Z,14.05
2022-12-27T05:31:39.973Z,14.23
2022-12-27T05:34:42.282Z,14.18
2022-12-27T05:37:47.638Z,14.25
2022-12-27T05:40:52.124Z,15.00
2022-12-27T05:43:54.188Z,14.65
2022-12-27T05:46:56.341Z,13.32
2022-12-27T05:49:58.458Z,14.13
2022-12-27T05:53:00.473Z,16.83
2022-12-27T05:56:02.803Z,17.95
2022-12-27T05:59:05.628Z,17.73
2022-12-27T06:02:07.725Z,14.23
2022-12-27T06:05:10.716Z,14.55
2022-12-27T06:08:13.188Z,13.15
2022-12-27T06:11:17.944Z,13.02
2022-12-27T06:14:20.093Z,12.40
2022-12-27T06:17:22.286Z,12.25
2022-12-27T06:20:24.529Z,11.88
2022-12-27T06:23:26.597Z,12.32
2022-12-27T06:26:30.169Z,15.20
2022-12-27T06:29:32.407Z,10.38
2022-12-27T06:32:35.452Z,13.25
2022-12-27T06:35:37.531Z,12.00
2022-12-27T06:38:39.995Z,13.23
2022-12-27T06:41:42.100Z,13.43
2022-12-27T06:44:44.196Z,13.13
2022-12-27T06:47:46.217Z,12.93
2022-12-27T06:50:48.268Z,12.57
2022-12-27T06:53:50.649Z,11.68
2022-12-27T06:56:52.713Z,13.55
2022-12-27T06:59:54.731Z,9.75
2022-12-27T07:02:56.787Z,7.40
2022-12-27T07:06:02.609Z,8.48
2022-12-27T07:09:06.015Z,8.50
2022-12-27T07:12:08.116Z,8.07
2022-12-27T07:15:10.738Z,13.23
2022-12-27T07:18:12.918Z,13.73
2022-12-27T07:21:17.970Z,12.13
2022-12-27T07:24:20.100Z,13.18
2022-12-27T07:27:22.091Z,13.15
2022-12-27T07:30:24.155Z,12.63
2022-12-27T07:33:26.557Z,13.48
2022-12-27T07:36:32.720Z,13.02
2022-12-27T07:39:34.776Z,14.68
2022-12-27T07:42:36.761Z,14.43
2022-12-27T07:45:38.828Z,12.88
2022-12-27T07:48:45.231Z,14.00
2022-12-27T07:51:47.217Z,13.57
2022-12-27T07:54:50.320Z,14.35
2022-12-27T07:57:52.412Z,13.05
2022-12-27T08:00:54.483Z,15.45
2022-12-27T08:03:56.909Z,14.68
2022-12-27T08:07:08.958Z,15.52
2022-12-27T08:10:12.050Z,15.38
2022-12-27T08:13:14.973Z,16.08
2022-12-27T08:16:20.604Z,14.93
2022-12-27T08:19:31.072Z,15.77
2022-12-27T08:22:33.231Z,14.70
2022-12-27T08:25:40.924Z,14.88
2022-12-27T08:28:46.993Z,14.25
2022-12-27T08:31:49.292Z,14.70
2022-12-27T08:34:51.278Z,15.98
2022-12-27T08:37:53.378Z,16.23
2022-12-27T08:40:55.771Z,14.32
2022-12-27T08:43:57.852Z,14.40
2022-12-27T08:46:59.928Z,16.23
2022-12-27T08:50:01.929Z,17.10
2022-12-27T08:53:06.116Z,16.00
2022-12-27T08:56:08.199Z,17.27
2022-12-27T08:59:10.253Z,16.35
2022-12-27T09:02:13.007Z,16.52
2022-12-27T09:05:15.937Z,15.93
2022-12-27T09:08:18.035Z,17.10
2022-12-27T09:11:31.625Z,16.98
2022-12-27T09:14:34.054Z,16.80
2022-12-27T09:17:36.301Z,17.10
2022-12-27T09:20:38.817Z,14.98
2022-12-27T09:23:41.566Z,17.08
2022-12-27T09:26:43.712Z,16.45
2022-12-27T09:29:48.453Z,18.45
2022-12-27T09:32:51.079Z,18.00
2022-12-27T09:35:53.245Z,20.00
2022-12-27T09:38:56.498Z,16.05
2022-12-27T09:45:41.082Z,17.60
2022-12-27T09:48:43.124Z,18.58
2022-12-27T09:51:54.462Z,16.95
2022-12-27T09:55:08.289Z,17.25
2022-12-27T09:58:36.644Z,17.75
2022-12-27T10:01:44.734Z,17.67
2022-12-27T10:05:18.583Z,17.50
2022-12-27T10:08:18.256Z,18.88
2022-12-27T10:11:38.881Z,19.55
2022-12-27T10:15:05.603Z,18.58
2022-12-27T10:18:26.119Z,18.73
2022-12-27T10:21:30.281Z,19.08
2022-12-27T10:24:44.908Z,17.75
2022-12-27T10:27:48.559Z,17.25
2022-12-27T10:30:50.570Z,17.08
2022-12-27T10:33:53.368Z,10.77
2022-12-27T10:36:55.451Z,17.27
2022-12-27T10:40:13.386Z,19.17
2022-12-27T10:43:20.040Z,17.00
2022-12-27T10:46:32.756Z,16.92
2022-12-27T10:49:36.597Z,18.33
2022-12-27T10:52:38.776Z,18.85
2022-12-27T10:55:40.800Z,18.90
2022-12-27T10:58:58.587Z,20.10
2022-12-27T11:02:02.586Z,20.58
2022-12-27T11:05:05.153Z,20.95
2022-12-27T11:08:20.952Z,18.95
2022-12-27T11:11:25.878Z,19.25
2022-12-27T11:14:27.869Z,16.98
2022-12-27T11:17:43.666Z,18.88
2022-12-27T11:20:57.944Z,18.77
2022-12-27T11:24:02.406Z,16.98
2022-12-27T11:27:04.827Z,13.52
2022-12-27T11:30:20.176Z,15.40
2022-12-27T11:33:42.499Z,13.27
2022-12-27T11:36:48.978Z,13.50
2022-12-27T11:40:10.498Z,13.25
2022-12-27T11:43:19.648Z,12.57
2022-12-27T11:46:31.039Z,11.88
2022-12-27T11:49:36.863Z,13.43
2022-12-27T11:52:51.422Z,12.50
2022-12-27T11:56:06.684Z,12.95
2022-12-27T11:59:35.216Z,12.60
2022-12-27T12:03:01.427Z,11.30
2022-12-27T12:06:06.302Z,12.32
2022-12-27T12:09:45.568Z,17.05
2022-12-27T12:12:59.394Z,15.30
2022-12-27T12:16:24.219Z,16.45
2022-12-27T12:20:04.176Z,18.63
2022-12-27T12:23:13.172Z,17.83
2022-12-27T12:26:23.229Z,17.25
2022-12-27T12:30:26.997Z,18.27
2022-12-27T12:33:50.101Z,17.65
2022-12-27T12:37:30.928Z,18.02
2022-12-27T12:40:58.014Z,17.98
2022-12-27T12:44:09.061Z,19.75
2022-12-27T12:47:35.479Z,21.00
2022-12-27T12:50:44.177Z,20.13
2022-12-27T12:54:01.320Z,13.43
2022-12-27T12:57:15.310Z,19.85
2022-12-27T13:00:40.156Z,21.42
2022-12-27T13:03:50.414Z,20.60
2022-12-27T13:07:40.998Z,21.92
2022-12-27T13:11:02.227Z,19.73
2022-12-27T13:14:16.241Z,22.27
2022-12-27T13:17:43.462Z,20.52
2022-12-27T13:21:26.143Z,18.83
2022-12-27T13:24:50.799Z,18.92
2022-12-27T13:28:09.505Z,17.40
2022-12-27T13:31:52.305Z,16.48
2022-12-27T13:35:20.220Z,18.08
2022-12-27T13:38:33.306Z,13.00
2022-12-27T13:41:44.375Z,13.90
2022-12-27T13:45:20.367Z,12.90
2022-12-27T13:48:42.746Z,12.57
2022-12-27T13:51:52.141Z,12.35
2022-12-27T13:55:16.813Z,12.77
2022-12-27T13:58:37.250Z,12.38
2022-12-27T14:01:58.823Z,12.57
2022-12-27T14:05:35.338Z,11.23
2022-12-27T14:08:56.093Z,9.18
2022-12-27T14:12:29.562Z,9.13
2022-12-27T14:15:31.497Z,8.90
2022-12-27T14:19:03.125Z,10.05
2022-12-27T14:22:17.162Z,10.93
2022-12-27T14:25:46.950Z,12.00
2022-12-27T14:29:01.339Z,9.50
2022-12-27T14:32:21.951Z,11.23
2022-12-27T14:35:54.815Z,10.73
2022-12-27T14:39:12.689Z,9.77
2022-12-27T14:42:29.453Z,10.15
2022-12-27T14:46:05.195Z,9.18
2022-12-27T14:49:24.385Z,8.57
2022-12-27T14:52:54.136Z,9.88
2022-12-27T14:56:24.765Z,9.02
2022-12-27T14:59:40.980Z,7.80
2022-12-27T15:02:49.327Z,8.70
2022-12-27T15:09:23.791Z,8.65
2022-12-27T15:12:35.431Z,8.02
2022-12-27T15:15:52.732Z,7.75
2022-12-27T15:19:10.138Z,6.70
2022-12-27T15:22:34.953Z,6.68
2022-12-27T15:26:01.210Z,5.07
2022-12-27T15:29:03.312Z,5.72
2022-12-27T15:32:26.595Z,4.47
2022-12-27T15:35:28.777Z,5.65
2022-12-27T15:38:54.520Z,3.50
2022-12-27T15:42:22.947Z,4.32
2022-12-27T15:45:42.978Z,3.25
2022-12-27T15:49:09.731Z,3.35
2022-12-27T15:52:48.638Z,2.72
2022-12-27T15:55:59.737Z,3.10
2022-12-27T15:59:39.041Z,2.75
2022-12-27T16:02:44.044Z,2.93
2022-12-27T16:05:52.492Z,2.40
2022-12-27T16:09:23.606Z,2.63
2022-12-27T16:12:37.705Z,2.63
2022-12-27T16:15:51.173Z,2.33
2022-12-27T16:19:03.132Z,1.90
2022-12-27T16:22:34.640Z,1.63
2022-12-27T16:25:43.661Z,1.73
2022-12-27T16:29:03.308Z,2.50
2022-12-27T16:32:32.018Z,1.55
2022-12-27T16:35:34.060Z,2.20
2022-12-27T16:38:39.664Z,1.95
2022-12-27T16:41:57.168Z,2.28
2022-12-27T16:45:23.190Z,1.50
2022-12-27T16:48:49.635Z,1.95
2022-12-27T16:52:23.513Z,3.30
2022-12-27T16:56:04.649Z,2.40
2022-12-27T17:02:38.393Z,2.33
2022-12-27T17:05:52.943Z,3.17
2022-12-27T17:09:08.784Z,1.75
2022-12-27T17:12:17.824Z,2.40
2022-12-27T17:15:22.307Z,2.63
2022-12-27T17:18:33.777Z,2.28
2022-12-27T17:21:41.685Z,2.55
2022-12-27T17:24:47.785Z,2.80
2022-12-27T17:28:05.623Z,2.83
2022-12-27T17:31:22.614Z,2.80
2022-12-27T17:34:36.846Z,3.08
2022-12-27T17:38:16.345Z,3.20
2022-12-27T17:42:07.300Z,2.95
2022-12-27T17:45:18.269Z,3.03
2022-12-27T17:48:29.370Z,2.70
2022-12-27T17:51:34.595Z,3.72
2022-12-27T17:55:00.273Z,2.90
2022-12-27T17:58:06.099Z,2.35
2022-12-27T18:01:08.357Z,2.33
2022-12-27T18:04:19.870Z,2.47
2022-12-27T18:07:30.314Z,1.85
2022-12-27T18:10:34.749Z,2.40
2022-12-27T18:13:44.712Z,2.72
2022-12-27T18:16:47.867Z,2.30
2022-12-27T18:19:49.935Z,2.58
2022-12-27T18:23:01.140Z,2.85
2022-12-27T18:26:13.395Z,2.58
2022-12-27T18:29:16.146Z,1.92
2022-12-27T18:32:19.519Z,3.17
2022-12-27T18:35:24.428Z,2.63
2022-12-27T18:38:32.641Z,2.45
2022-12-27T18:41:47.803Z,2.20
2022-12-27T18:44:55.204Z,2.15
2022-12-27T18:48:02.369Z,2.65
2022-12-27T18:51:22.602Z,2.88
2022-12-27T18:54:29.745Z,2.22
2022-12-27T18:57:37.745Z,3.05
2022-12-27T19:00:54.891Z,3.90
2022-12-27T19:04:17.558Z,3.10
2022-12-27T19:07:19.899Z,3.35
2022-12-27T19:10:25.656Z,2.75
2022-12-27T19:13:49.911Z,2.92
2022-12-27T19:16:56.160Z,2.42
2022-12-27T19:20:03.346Z,2.95
2022-12-27T19:23:24.279Z,3.08
2022-12-27T19:26:32.974Z,2.42
2022-12-27T19:29:40.997Z,2.40
2022-12-27T19:32:44.730Z,3.28
2022-12-27T19:35:46.802Z,3.00
2022-12-27T19:38:51.634Z,2.90
2022-12-27T19:42:01.016Z,3.75
2022-12-27T19:45:10.878Z,3.05
2022-12-27T19:48:14.028Z,2.83
2022-12-27T19:51:19.324Z,2.83
2022-12-27T19:54:23.141Z,3.30
2022-12-27T19:57:25.349Z,2.42
2022-12-27T20:00:28.022Z,3.15
2022-12-27T20:03:30.790Z,3.28
2022-12-27T20:06:33.987Z,1.58
2022-12-27T20:09:36.030Z,3.13
2022-12-27T20:12:38.163Z,2.55
2022-12-27T20:15:40.270Z,2.60
2022-12-27T20:18:43.838Z,2.55
2022-12-27T20:21:47.336Z,2.70
2022-12-27T20:24:49.491Z,3.28
2022-12-27T20:27:51.732Z,3.47
2022-12-27T20:30:53.831Z,3.35
2022-12-27T20:33:56.458Z,3.17
2022-12-27T20:36:58.729Z,2.92
2022-12-27T20:40:00.791Z,2.80
2022-12-27T20:43:03.164Z,2.13
2022-12-27T20:46:16.729Z,2.38
2022-12-27T20:49:18.867Z,2.08
2022-12-27T20:52:25.699Z,2.88
2022-12-27T20:55:33.496Z,3.63
2022-12-27T20:58:35.848Z,3.17
2022-12-27T21:01:38.066Z,1.98
2022-12-27T21:04:41.021Z,2.42
2022-12-27T21:07:43.106Z,2.38
2022-12-27T21:10:45.122Z,3.00
2022-12-27T21:13:48.900Z,2.40
2022-12-27T21:16:52.869Z,3.75
2022-12-27T21:19:55.274Z,2.03
2022-12-27T21:22:57.365Z,2.97
2022-12-27T21:26:09.040Z,3.33
2022-12-27T21:29:14.410Z,3.47
2022-12-27T21:32:17.933Z,3.55
2022-12-27T21:35:20.231Z,2.67
2022-12-27T21:38:22.508Z,2.85
2022-12-27T21:41:27.519Z,2.95
2022-12-27T21:44:30.080Z,2.60
2022-12-27T21:47:32.756Z,2.70
2022-12-27T21:50:37.411Z,3.47
2022-12-27T21:53:40.282Z,3.35
2022-12-27T21:56:42.609Z,2.40
2022-12-27T21:59:44.867Z,3.38
2022-12-27T22:02:47.073Z,3.78
2022-12-27T22:05:49.212Z,2.78
2022-12-27T22:08:53.876Z,3.25
2022-12-27T22:11:55.942Z,2.47
2022-12-27T22:14:57.963Z,3.90
2022-12-27T22:18:00.043Z,2.80
2022-12-27T22:21:04.920Z,2.83
2022-12-27T22:24:11.955Z,2.85
2022-12-27T22:27:14.084Z,2.72
2022-12-27T22:30:16.222Z,3.00
2022-12-27T22:33:18.260Z,2.25
2022-12-27T22:36:22.971Z,2.83
2022-12-27T22:39:24.953Z,3.47
2022-12-27T22:42:27.081Z,3.72
2022-12-27T22:45:29.188Z,2.80
2022-12-27T22:48:31.204Z,2.78
2022-12-27T22:51:36.252Z,3.50
2022-12-27T22:55:05.595Z,3.35
2022-12-27T22:58:00.329Z,2.90
2022-12-27T23:01:02.341Z,3.05
2022-12-27T23:04:06.312Z,3.25
2022-12-27T23:07:08.398Z,3.03
2022-12-27T23:10:10.494Z,2.92
2022-12-27T23:13:12.449Z,3.50
2022-12-27T23:16:15.383Z,3.67
2022-12-27T23:19:21.407Z,3.35
2022-12-27T23:22:23.467Z,3.25
2022-12-27T23:25:25.457Z,4.00
2022-12-27T23:28:27.537Z,2.97
2022-12-27T23:31:30.699Z,3.08
2022-12-27T23:34:32.838Z,2.50
2022-12-27T23:37:34.947Z,2.35
2022-12-27T23:40:36.952Z,2.33
2022-12-27T23:43:56.225Z,3.00
2022-12-27T23:46:58.573Z,2.40
2022-12-27T23:50:00.816Z,2.53
2022-12-27T23:53:03.278Z,2.80
2022-12-27T23:56:20.810Z,2.35
2022-12-27T23:59:23.520Z,2.88
